createdAt,value
2022-12-11T00:00:39.790Z,30.73
2022-12-11T00:02:42.572Z,33.93
2022-12-11T00:04:47.197Z,32.30
2022-12-11T00:06:50.653Z,31.07
2022-12-11T00:08:54.407Z,27.60
2022-12-11T00:10:59.958Z,31.90
2022-12-11T00:13:02.996Z,26.87
2022-12-11T00:15:09.204Z,28.20
2022-12-11T00:17:12.331Z,29.50
2022-12-11T00:19:15.397Z,29.10
2022-12-11T00:21:21.234Z,30.07
2022-12-11T00:23:24.229Z,27.33
2022-12-11T00:25:27.066Z,27.40
2022-12-11T00:27:29.840Z,33.83
2022-12-11T00:29:33.238Z,28.17
2022-12-11T00:31:42.204Z,28.17
2022-12-11T00:33:45.898Z,28.70
2022-12-11T00:35:48.845Z,36.33
2022-12-11T00:37:53.811Z,32.60
2022-12-11T00:39:56.491Z,27.77
2022-12-11T00:41:59.474Z,27.60
2022-12-11T00:44:02.875Z,32.37
2022-12-11T00:46:06.934Z,26.37
2022-12-11T00:48:10.496Z,25.33
2022-12-11T00:50:16.448Z,28.07
2022-12-11T00:52:19.575Z,26.70
2022-12-11T00:54:24.477Z,25.03
2022-12-11T00:56:27.608Z,23.80
2022-12-11T00:58:30.930Z,25.07
2022-12-11T01:00:34.060Z,23.43
2022-12-11T01:02:37.310Z,23.57
2022-12-11T01:04:40.408Z,29.20
2022-12-11T01:06:43.289Z,24.90
2022-12-11T01:09:09.995Z,27.67
2022-12-11T01:11:15.286Z,25.17
2022-12-11T01:13:18.451Z,27.40
2022-12-11T01:15:22.945Z,24.30
2022-12-11T01:17:25.923Z,27.80
2022-12-11T01:19:28.701Z,24.97
2022-12-11T01:21:31.737Z,26.27
2022-12-11T01:23:37.665Z,28.90
2022-12-11T01:25:44.461Z,29.27
2022-12-11T01:27:56.777Z,29.97
2022-12-11T01:29:59.858Z,27.63
2022-12-11T01:32:02.531Z,27.77
2022-12-11T01:34:05.880Z,26.90
2022-12-11T01:36:10.481Z,26.70
2022-12-11T01:38:15.375Z,28.87
2022-12-11T01:40:22.080Z,30.97
2022-12-11T01:42:26.295Z,29.73
2022-12-11T01:45:06.749Z,30.23
2022-12-11T01:47:16.668Z,27.03
2022-12-11T01:49:22.067Z,27.43
2022-12-11T01:51:27.978Z,27.73
2022-12-11T01:53:35.130Z,29.30
2022-12-11T01:55:42.114Z,27.70
2022-12-11T01:57:49.527Z,26.53
2022-12-11T01:59:52.598Z,28.37
2022-12-11T02:02:00.471Z,27.07
2022-12-11T02:04:05.260Z,27.43
2022-12-11T02:06:26.293Z,26.53
2022-12-11T02:08:30.030Z,24.53
2022-12-11T02:10:50.390Z,26.67
2022-12-11T02:12:59.901Z,26.40
2022-12-11T02:15:13.742Z,28.97
2022-12-11T02:17:23.722Z,27.93
2022-12-11T02:19:53.378Z,24.87
2022-12-11T02:21:57.826Z,26.93
2022-12-11T02:24:28.213Z,25.27
2022-12-11T02:26:50.585Z,29.57
2022-12-11T02:28:59.054Z,29.37
2022-12-11T02:31:06.712Z,30.33
2022-12-11T02:33:12.610Z,26.90
2022-12-11T02:35:21.549Z,25.67
2022-12-11T02:37:29.609Z,29.83
2022-12-11T02:39:36.724Z,30.13
2022-12-11T02:41:40.828Z,30.13
2022-12-11T02:43:45.037Z,27.37
2022-12-11T02:45:51.029Z,28.57
2022-12-11T02:47:53.982Z,26.93
2022-12-11T02:49:59.410Z,31.30
2022-12-11T02:52:05.867Z,26.90
2022-12-11T02:54:15.443Z,30.87
2022-12-11T02:56:23.018Z,30.20
2022-12-11T02:58:29.763Z,27.93
2022-12-11T03:00:33.479Z,27.87
2022-12-11T03:02:38.203Z,27.50
2022-12-11T03:04:42.796Z,29.73
2022-12-11T03:06:51.387Z,25.33
2022-12-11T03:08:54.126Z,25.90
2022-12-11T03:10:57.064Z,26.03
2022-12-11T03:13:03.574Z,27.23
2022-12-11T03:15:14.445Z,28.20
2022-12-11T03:17:20.405Z,29.60
2022-12-11T03:19:35.806Z,28.10
2022-12-11T03:21:44.858Z,26.83
2022-12-11T03:23:51.867Z,27.77
2022-12-11T03:25:57.802Z,29.27
2022-12-11T03:28:10.840Z,29.30
2022-12-11T03:30:17.182Z,35.53
2022-12-11T03:32:23.579Z,30.97
2022-12-11T03:34:32.090Z,32.40
2022-12-11T03:36:38.527Z,33.00
2022-12-11T03:38:49.319Z,34.80
2022-12-11T03:40:58.940Z,33.27
2022-12-11T03:43:06.082Z,37.33
2022-12-11T03:45:10.202Z,35.47
2022-12-11T03:47:19.034Z,35.17
2022-12-11T03:49:25.596Z,37.13
2022-12-11T03:51:30.631Z,37.03
2022-12-11T03:53:35.253Z,34.87
2022-12-11T03:55:40.615Z,35.77
2022-12-11T03:57:43.991Z,34.43
2022-12-11T03:59:47.536Z,33.83
2022-12-11T04:01:50.586Z,34.37
2022-12-11T04:03:53.773Z,33.50
2022-12-11T04:05:57.335Z,33.97
2022-12-11T04:08:01.592Z,36.90
2022-12-11T04:10:06.150Z,37.60
2022-12-11T04:12:09.084Z,35.53
2022-12-11T04:14:32.026Z,35.83
2022-12-11T04:16:34.927Z,35.07
2022-12-11T04:18:55.018Z,37.50
2022-12-11T04:21:15.561Z,33.93
2022-12-11T04:23:38.196Z,32.83
2022-12-11T04:25:40.912Z,37.83
2022-12-11T04:27:52.931Z,34.53
2022-12-11T04:29:55.941Z,35.83
2022-12-11T04:31:58.879Z,37.97
2022-12-11T04:34:01.602Z,36.67
2022-12-11T04:36:04.794Z,38.43
2022-12-11T04:38:07.822Z,34.47
2022-12-11T04:40:14.868Z,34.57
2022-12-11T04:42:17.557Z,36.90
2022-12-11T04:44:20.284Z,39.40
2022-12-11T04:46:24.769Z,37.93
2022-12-11T04:48:27.579Z,35.13
2022-12-11T04:50:30.386Z,37.90
2022-12-11T04:52:35.635Z,38.07
2022-12-11T04:54:38.808Z,38.67
2022-12-11T04:56:42.961Z,37.33
2022-12-11T04:58:47.139Z,37.17
2022-12-11T05:00:49.917Z,37.23
2022-12-11T05:02:52.663Z,39.33
2022-12-11T05:04:55.392Z,39.47
2022-12-11T05:06:58.101Z,41.50
2022-12-11T05:09:00.771Z,40.57
2022-12-11T05:11:05.515Z,40.57
2022-12-11T05:13:09.631Z,40.80
2022-12-11T05:15:12.857Z,41.73
2022-12-11T05:17:15.690Z,42.37
2022-12-11T05:19:18.587Z,41.30
2022-12-11T05:21:21.492Z,41.17
2022-12-11T05:23:24.362Z,39.53
2022-12-11T05:25:27.628Z,39.93
2022-12-11T05:27:30.652Z,40.60
2022-12-11T05:29:34.872Z,39.77
2022-12-11T05:31:37.742Z,40.57
2022-12-11T05:33:40.545Z,38.27
2022-12-11T05:35:48.605Z,40.57
2022-12-11T05:37:51.313Z,43.67
2022-12-11T05:39:54.014Z,41.57
2022-12-11T05:41:56.740Z,39.57
2022-12-11T05:43:59.662Z,40.77
2022-12-11T05:46:08.759Z,42.27
2022-12-11T05:48:11.516Z,41.17
2022-12-11T05:50:14.221Z,41.77
2022-12-11T05:52:17.481Z,39.40
2022-12-11T05:54:20.173Z,40.13
2022-12-11T05:56:26.614Z,41.27
2022-12-11T05:58:29.500Z,42.03
2022-12-11T06:00:36.011Z,41.83
2022-12-11T06:02:41.126Z,42.63
2022-12-11T06:04:44.169Z,42.37
2022-12-11T06:06:46.857Z,44.77
2022-12-11T06:08:54.122Z,41.90
2022-12-11T06:10:57.887Z,42.13
2022-12-11T06:13:01.969Z,43.77
2022-12-11T06:15:05.672Z,44.17
2022-12-11T06:17:08.566Z,41.30
2022-12-11T06:19:17.263Z,45.37
2022-12-11T06:21:23.434Z,38.83
2022-12-11T06:23:26.185Z,41.43
2022-12-11T06:25:30.115Z,44.87
2022-12-11T06:27:33.126Z,41.87
2022-12-11T06:29:35.874Z,44.90
2022-12-11T06:31:38.597Z,41.73
2022-12-11T06:33:41.498Z,43.07
2022-12-11T06:35:46.461Z,43.30
2022-12-11T06:37:49.386Z,40.93
2022-12-11T06:39:52.180Z,43.20
2022-12-11T06:41:54.857Z,41.73
2022-12-11T06:43:57.571Z,44.03
2022-12-11T06:46:03.805Z,43.37
2022-12-11T06:48:07.386Z,40.77
2022-12-11T06:50:10.746Z,39.63
2022-12-11T06:52:18.539Z,39.20
2022-12-11T06:54:21.516Z,42.40
2022-12-11T06:56:25.320Z,39.57
2022-12-11T06:58:28.123Z,44.00
2022-12-11T07:00:31.287Z,39.43
2022-12-11T07:02:34.320Z,44.20
2022-12-11T07:04:37.089Z,44.87
2022-12-11T07:06:39.831Z,43.20
2022-12-11T07:08:44.160Z,43.73
2022-12-11T07:10:46.996Z,40.17
2022-12-11T07:12:50.238Z,42.27
2022-12-11T07:14:53.047Z,42.27
2022-12-11T07:16:55.841Z,39.73
2022-12-11T07:18:59.057Z,37.37
2022-12-11T07:21:02.239Z,38.87
2022-12-11T07:23:05.384Z,39.87
2022-12-11T07:25:10.564Z,39.47
2022-12-11T07:27:13.443Z,37.37
2022-12-11T07:29:16.415Z,41.40
2022-12-11T07:31:21.517Z,36.30
2022-12-11T07:33:24.552Z,36.20
2022-12-11T07:35:27.303Z,40.83
2022-12-11T07:37:30.038Z,37.63
2022-12-11T07:39:32.822Z,40.03
2022-12-11T07:41:36.929Z,41.00
2022-12-11T07:43:39.761Z,42.50
2022-12-11T07:45:42.982Z,41.50
2022-12-11T07:47:46.270Z,42.17
2022-12-11T07:49:49.550Z,39.93
2022-12-11T07:51:52.571Z,42.20
2022-12-11T07:53:58.190Z,41.27
2022-12-11T07:56:01.351Z,37.13
2022-12-11T07:58:05.640Z,39.23
2022-12-11T08:00:10.613Z,37.67
2022-12-11T08:02:14.275Z,40.67
2022-12-11T08:04:17.210Z,39.00
2022-12-11T08:06:21.959Z,40.27
2022-12-11T08:08:25.147Z,35.47
2022-12-11T08:10:28.018Z,38.80
2022-12-11T08:12:30.980Z,36.17
2022-12-11T08:14:35.178Z,38.43
2022-12-11T08:16:40.581Z,40.50
2022-12-11T08:18:44.392Z,42.17
2022-12-11T08:20:47.353Z,34.63
2022-12-11T08:22:54.608Z,38.10
2022-12-11T08:25:00.651Z,40.33
2022-12-11T08:27:05.003Z,40.80
2022-12-11T08:29:08.071Z,40.03
2022-12-11T08:31:14.657Z,43.90
2022-12-11T08:33:17.649Z,42.03
2022-12-11T08:35:20.503Z,42.47
2022-12-11T08:37:25.788Z,41.57
2022-12-11T08:39:30.025Z,46.23
2022-12-11T08:41:34.546Z,43.67
2022-12-11T08:43:37.298Z,45.80
2022-12-11T08:45:40.742Z,43.97
2022-12-11T08:47:47.806Z,47.53
2022-12-11T08:49:51.001Z,43.73
2022-12-11T08:51:54.600Z,46.70
2022-12-11T08:53:58.687Z,46.00
2022-12-11T08:56:05.042Z,45.03
2022-12-11T08:58:07.769Z,43.40
2022-12-11T09:00:15.167Z,44.67
2022-12-11T09:02:17.952Z,43.77
2022-12-11T09:04:22.317Z,41.30
2022-12-11T09:06:28.199Z,40.70
2022-12-11T09:08:31.254Z,43.47
2022-12-11T09:10:34.128Z,40.27
2022-12-11T09:12:38.046Z,40.73
2022-12-11T09:14:43.986Z,39.50
2022-12-11T09:16:49.348Z,37.77
2022-12-11T09:18:54.455Z,38.33
2022-12-11T09:21:02.992Z,36.00
2022-12-11T09:23:06.169Z,41.03
2022-12-11T09:25:13.213Z,38.27
2022-12-11T09:27:17.773Z,39.03
2022-12-11T09:29:20.509Z,44.43
2022-12-11T09:31:25.915Z,45.17
2022-12-11T09:33:29.007Z,38.23
2022-12-11T09:35:31.900Z,40.17
2022-12-11T09:37:38.526Z,44.93
2022-12-11T09:39:41.362Z,41.07
2022-12-11T09:41:53.507Z,43.33
2022-12-11T09:44:04.685Z,41.17
2022-12-11T09:46:12.657Z,39.67
2022-12-11T09:48:20.071Z,43.67
2022-12-11T09:50:25.713Z,43.17
2022-12-11T09:52:35.405Z,41.70
2022-12-11T09:54:44.663Z,42.80
2022-12-11T09:56:53.583Z,43.77
2022-12-11T09:59:07.422Z,45.27
2022-12-11T10:01:15.379Z,40.30
2022-12-11T10:03:49.934Z,39.80
2022-12-11T10:06:04.272Z,41.27
2022-12-11T10:08:16.954Z,42.80
2022-12-11T10:10:33.901Z,42.90
2022-12-11T10:12:46.834Z,46.83
2022-12-11T10:15:15.862Z,39.03
2022-12-11T10:17:24.418Z,39.77
2022-12-11T10:19:29.842Z,40.97
2022-12-11T10:21:40.255Z,39.40
2022-12-11T10:23:47.148Z,40.47
2022-12-11T10:25:55.788Z,37.47
2022-12-11T10:27:59.171Z,37.97
2022-12-11T10:30:08.677Z,36.13
2022-12-11T10:32:20.353Z,36.10
2022-12-11T10:34:34.176Z,34.83
2022-12-11T10:36:40.999Z,34.43
2022-12-11T10:38:45.085Z,29.23
2022-12-11T10:40:51.012Z,39.33
2022-12-11T10:42:55.998Z,39.07
2022-12-11T10:45:01.477Z,38.13
2022-12-11T10:47:06.928Z,32.07
2022-12-11T10:49:23.150Z,32.27
2022-12-11T10:51:34.990Z,30.20
2022-12-11T10:53:37.951Z,27.93
2022-12-11T10:55:46.068Z,27.63
2022-12-11T10:57:58.757Z,31.17
2022-12-11T11:00:02.244Z,33.30
2022-12-11T11:02:07.420Z,30.37
2022-12-11T11:04:20.243Z,32.37
2022-12-11T11:06:24.712Z,34.00
2022-12-11T11:08:29.091Z,31.80
2022-12-11T11:10:32.216Z,32.07
2022-12-11T11:12:40.067Z,27.63
2022-12-11T11:14:44.126Z,27.33
2022-12-11T11:16:49.114Z,22.57
2022-12-11T11:18:55.318Z,22.07
2022-12-11T11:20:58.629Z,21.27
2022-12-11T11:23:04.219Z,19.43
2022-12-11T11:25:16.887Z,16.67
2022-12-11T11:27:29.220Z,17.33
2022-12-11T11:29:34.743Z,16.83
2022-12-11T11:31:39.218Z,14.47
2022-12-11T11:33:52.666Z,12.57
2022-12-11T11:35:56.747Z,14.30
2022-12-11T11:38:05.080Z,14.30
2022-12-11T11:40:14.696Z,14.77
2022-12-11T11:42:21.758Z,18.67
2022-12-11T11:44:29.887Z,18.93
2022-12-11T11:46:38.505Z,17.80
2022-12-11T11:48:50.437Z,16.57
2022-12-11T11:50:53.987Z,18.53
2022-12-11T11:53:01.632Z,17.63
2022-12-11T11:55:10.290Z,21.30
2022-12-11T11:57:19.327Z,17.03
2022-12-11T11:59:26.083Z,17.83
2022-12-11T12:01:29.669Z,17.93
2022-12-11T12:03:32.550Z,16.63
2022-12-11T12:05:43.203Z,19.23
2022-12-11T12:07:51.486Z,19.47
2022-12-11T12:10:02.458Z,14.97
2022-12-11T12:12:17.178Z,15.77
2022-12-11T12:14:51.563Z,16.50
2022-12-11T12:17:01.590Z,16.87
2022-12-11T12:19:14.650Z,16.97
2022-12-11T12:21:27.014Z,18.40
2022-12-11T12:23:45.539Z,19.47
2022-12-11T12:25:53.725Z,17.93
2022-12-11T12:28:03.246Z,19.83
2022-12-11T12:30:11.555Z,22.87
2022-12-11T12:32:25.542Z,19.70
2022-12-11T12:34:41.491Z,24.33
2022-12-11T12:36:50.417Z,20.80
2022-12-11T12:38:56.381Z,20.17
2022-12-11T12:41:13.936Z,19.37
2022-12-11T12:43:47.024Z,21.40
2022-12-11T12:46:00.027Z,20.70
2022-12-11T12:48:03.288Z,19.93
2022-12-11T12:50:13.547Z,18.70
2022-12-11T12:52:19.623Z,15.80
2022-12-11T12:54:24.411Z,16.53
2022-12-11T12:56:31.075Z,20.13
2022-12-11T12:58:42.911Z,18.53
2022-12-11T13:00:45.907Z,14.73
2022-12-11T13:02:50.433Z,17.10
2022-12-11T13:04:59.749Z,16.60
2022-12-11T13:07:13.785Z,16.27
2022-12-11T13:09:22.100Z,17.90
2022-12-11T13:11:34.624Z,15.83
2022-12-11T13:13:40.254Z,17.10
2022-12-11T13:15:43.790Z,16.57
2022-12-11T13:17:47.056Z,15.67
2022-12-11T13:19:52.861Z,14.47
2022-12-11T13:21:59.701Z,20.43
2022-12-11T13:24:16.378Z,20.40
2022-12-11T13:26:30.800Z,19.70
2022-12-11T13:28:47.156Z,15.93
2022-12-11T13:30:59.482Z,17.17
2022-12-11T13:33:05.667Z,20.30
2022-12-11T13:35:15.719Z,17.47
2022-12-11T13:37:26.714Z,19.20
2022-12-11T13:39:32.113Z,18.13
2022-12-11T13:41:38.429Z,19.73
2022-12-11T13:43:43.153Z,18.37
2022-12-11T13:45:50.049Z,15.90
2022-12-11T13:47:53.515Z,17.03
2022-12-11T13:50:03.498Z,17.40
2022-12-11T13:52:07.351Z,18.13
2022-12-11T13:54:17.703Z,16.43
2022-12-11T13:56:23.346Z,15.67
2022-12-11T13:58:28.226Z,14.13
2022-12-11T14:00:33.299Z,15.20
2022-12-11T14:02:40.388Z,15.20
2022-12-11T14:04:43.822Z,13.97
2022-12-11T14:06:46.684Z,17.17
2022-12-11T14:08:54.407Z,15.87
2022-12-11T14:10:57.445Z,14.17
2022-12-11T14:13:03.370Z,15.07
2022-12-11T14:15:13.944Z,14.47
2022-12-11T14:17:23.385Z,15.07
2022-12-11T14:19:26.343Z,16.47
2022-12-11T14:21:29.246Z,23.13
2022-12-11T14:23:34.491Z,18.53
2022-12-11T14:25:37.178Z,46.23
2022-12-11T14:27:49.914Z,43.83
2022-12-11T14:29:53.225Z,18.07
2022-12-11T14:32:00.383Z,20.30
2022-12-11T14:34:07.921Z,44.63
2022-12-11T14:36:11.715Z,21.33
2022-12-11T14:38:19.002Z,18.10
2022-12-11T14:40:25.644Z,18.83
2022-12-11T14:42:32.506Z,20.53
2022-12-11T14:44:46.978Z,15.03
2022-12-11T14:46:54.143Z,16.70
2022-12-11T14:49:02.507Z,19.93
2022-12-11T14:51:08.366Z,19.43
2022-12-11T14:53:15.230Z,20.73
2022-12-11T14:55:21.394Z,20.43
2022-12-11T14:57:28.417Z,18.17
2022-12-11T14:59:34.174Z,20.50
2022-12-11T15:01:38.531Z,22.30
2022-12-11T15:03:43.819Z,24.73
2022-12-11T15:05:53.482Z,20.00
2022-12-11T15:07:59.778Z,22.23
2022-12-11T15:10:03.911Z,26.43
2022-12-11T15:12:12.569Z,25.10
2022-12-11T15:14:19.191Z,24.03
2022-12-11T15:16:24.235Z,24.10
2022-12-11T15:18:30.783Z,28.10
2022-12-11T15:20:33.558Z,22.27
2022-12-11T15:22:37.868Z,20.80
2022-12-11T15:24:43.060Z,24.63
2022-12-11T15:26:47.748Z,24.50
2022-12-11T15:29:01.246Z,20.07
2022-12-11T15:31:06.963Z,23.53
2022-12-11T15:33:22.011Z,23.50
2022-12-11T15:35:26.738Z,20.87
2022-12-11T15:37:30.910Z,21.03
2022-12-11T15:39:34.975Z,21.53
2022-12-11T15:41:37.767Z,23.10
2022-12-11T15:43:40.673Z,22.30
2022-12-11T15:45:43.945Z,21.73
2022-12-11T15:47:47.519Z,19.83
2022-12-11T15:49:50.930Z,18.80
2022-12-11T15:51:54.633Z,19.57
2022-12-11T15:53:57.295Z,20.60
2022-12-11T15:56:01.642Z,20.50
2022-12-11T15:58:08.635Z,19.17
2022-12-11T16:00:19.216Z,21.73
2022-12-11T16:02:24.052Z,20.77
2022-12-11T16:04:27.335Z,19.73
2022-12-11T16:06:30.077Z,19.17
2022-12-11T16:08:33.126Z,21.73
2022-12-11T16:10:35.903Z,20.63
2022-12-11T16:12:40.230Z,19.77
2022-12-11T16:14:43.625Z,22.60
2022-12-11T16:16:46.456Z,20.17
2022-12-11T16:18:49.767Z,22.57
2022-12-11T16:20:53.617Z,21.33
2022-12-11T16:22:56.575Z,20.67
2022-12-11T16:24:59.545Z,23.17
2022-12-11T16:27:02.341Z,22.43
2022-12-11T16:29:06.786Z,22.70
2022-12-11T16:31:11.950Z,21.47
2022-12-11T16:33:15.870Z,20.50
2022-12-11T16:35:19.506Z,20.17
2022-12-11T16:37:22.179Z,21.27
2022-12-11T16:39:25.647Z,20.77
2022-12-11T16:41:28.506Z,18.13
2022-12-11T16:43:31.388Z,21.40
2022-12-11T16:45:36.340Z,18.47
2022-12-11T16:47:39.121Z,21.37
2022-12-11T16:49:43.042Z,17.43
2022-12-11T16:51:49.148Z,17.07
2022-12-11T16:53:53.741Z,20.97
2022-12-11T16:55:56.746Z,18.80
2022-12-11T16:57:59.747Z,19.93
2022-12-11T17:00:02.601Z,19.67
2022-12-11T17:02:06.876Z,19.23
2022-12-11T17:04:10.669Z,19.10
2022-12-11T17:06:15.487Z,18.30
2022-12-11T17:08:18.377Z,19.53
2022-12-11T17:10:21.111Z,21.17
2022-12-11T17:12:27.578Z,20.00
2022-12-11T17:14:30.340Z,21.57
2022-12-11T17:16:36.765Z,19.40
2022-12-11T17:18:41.659Z,19.17
2022-12-11T17:20:45.580Z,18.97
2022-12-11T17:22:48.367Z,19.73
2022-12-11T17:24:51.134Z,21.70
2022-12-11T17:26:53.934Z,18.77
2022-12-11T17:28:57.548Z,18.47
2022-12-11T17:31:00.556Z,17.97
2022-12-11T17:33:04.404Z,15.40
2022-12-11T17:35:14.904Z,17.90
2022-12-11T17:37:17.813Z,18.70
2022-12-11T17:39:21.138Z,16.70
2022-12-11T17:41:25.997Z,18.50
2022-12-11T17:43:28.731Z,19.13
2022-12-11T17:45:31.438Z,18.50
2022-12-11T17:47:34.326Z,18.00
2022-12-11T17:49:37.223Z,15.73
2022-12-11T17:51:41.520Z,15.83
2022-12-11T17:53:44.226Z,21.57
2022-12-11T17:55:47.877Z,20.33
2022-12-11T17:57:50.749Z,18.40
2022-12-11T17:59:55.097Z,22.53
2022-12-11T18:01:58.227Z,21.83
2022-12-11T18:04:02.211Z,23.37
2022-12-11T18:06:07.405Z,24.07
2022-12-11T18:08:13.859Z,27.73
2022-12-11T18:10:17.331Z,25.63
2022-12-11T18:12:20.243Z,23.20
2022-12-11T18:14:23.099Z,24.20
2022-12-11T18:16:28.875Z,24.77
2022-12-11T18:18:35.363Z,26.37
2022-12-11T18:20:40.967Z,26.73
2022-12-11T18:22:43.810Z,24.27
2022-12-11T18:24:51.347Z,34.17
2022-12-11T18:26:59.284Z,34.67
2022-12-11T18:29:02.292Z,28.03
2022-12-11T18:31:09.540Z,30.43
2022-12-11T18:33:13.032Z,28.90
2022-12-11T18:35:16.547Z,29.63
2022-12-11T18:37:22.250Z,27.20
2022-12-11T18:39:29.530Z,26.03
2022-12-11T18:41:33.553Z,26.40
2022-12-11T18:43:36.699Z,29.33
2022-12-11T18:45:41.349Z,26.33
2022-12-11T18:47:44.074Z,28.70
2022-12-11T18:49:46.772Z,25.53
2022-12-11T18:51:49.833Z,25.20
2022-12-11T18:53:53.402Z,26.33
2022-12-11T18:56:00.561Z,28.30
2022-12-11T18:58:05.349Z,28.17
2022-12-11T19:00:11.994Z,32.97
2022-12-11T19:02:16.365Z,30.20
2022-12-11T19:04:19.392Z,32.67
2022-12-11T19:06:26.558Z,29.47
2022-12-11T19:08:29.500Z,29.03
2022-12-11T19:10:32.795Z,31.17
2022-12-11T19:12:36.794Z,32.67
2022-12-11T19:14:40.998Z,32.83
2022-12-11T19:16:45.474Z,37.67
2022-12-11T19:18:48.601Z,39.53
2022-12-11T19:20:55.679Z,38.73
2022-12-11T19:23:06.535Z,36.67
2022-12-11T19:25:10.581Z,36.67
2022-12-11T19:27:14.190Z,36.73
2022-12-11T19:29:21.557Z,34.67
2022-12-11T19:31:25.700Z,35.37
2022-12-11T19:33:28.404Z,36.07
2022-12-11T19:35:31.187Z,36.13
2022-12-11T19:37:33.878Z,36.67
2022-12-11T19:39:39.715Z,31.87
2022-12-11T19:41:42.562Z,29.33
2022-12-11T19:43:45.717Z,30.43
2022-12-11T19:45:48.927Z,33.63
2022-12-11T19:47:53.585Z,37.40
2022-12-11T19:49:56.952Z,34.30
2022-12-11T19:51:59.746Z,35.00
2022-12-11T19:54:03.462Z,34.23
2022-12-11T19:56:07.485Z,33.47
2022-12-11T19:58:10.255Z,34.03
2022-12-11T20:00:14.067Z,31.53
2022-12-11T20:02:17.106Z,31.17
2022-12-11T20:04:21.210Z,33.97
2022-12-11T20:06:28.405Z,32.90
2022-12-11T20:08:46.956Z,33.93
2022-12-11T20:10:49.783Z,38.37
2022-12-11T20:12:56.367Z,35.47
2022-12-11T20:14:59.099Z,33.60
2022-12-11T20:17:12.351Z,36.97
2022-12-11T20:19:16.403Z,37.87
2022-12-11T20:21:20.880Z,40.23
2022-12-11T20:23:23.705Z,40.70
2022-12-11T20:25:26.735Z,38.20
2022-12-11T20:27:29.667Z,38.63
2022-12-11T20:29:32.963Z,41.30
2022-12-11T20:31:37.189Z,37.13
2022-12-11T20:33:40.373Z,40.73
2022-12-11T20:35:43.487Z,45.13
2022-12-11T20:37:47.810Z,49.63
2022-12-11T20:39:50.535Z,50.87
2022-12-11T20:41:53.220Z,52.80
2022-12-11T20:43:56.246Z,51.03
2022-12-11T20:45:59.969Z,58.63
2022-12-11T20:48:02.747Z,54.07
2022-12-11T20:50:06.246Z,53.90
2022-12-11T20:52:09.193Z,56.53
2022-12-11T20:54:13.257Z,58.80
2022-12-11T20:56:18.810Z,54.30
2022-12-11T20:58:21.895Z,60.63
2022-12-11T21:00:24.994Z,59.27
2022-12-11T21:02:30.886Z,60.27
2022-12-11T21:04:33.711Z,54.87
2022-12-11T21:06:38.611Z,56.27
2022-12-11T21:08:41.333Z,59.90
2022-12-11T21:10:46.932Z,49.93
2022-12-11T21:12:49.783Z,52.47
2022-12-11T21:14:52.866Z,51.87
2022-12-11T21:16:56.253Z,57.60
2022-12-11T21:18:59.750Z,58.93
2022-12-11T21:21:02.770Z,61.13
2022-12-11T21:23:05.594Z,57.93
2022-12-11T21:25:09.233Z,58.90
2022-12-11T21:27:15.798Z,55.97
2022-12-11T21:29:18.729Z,58.17
2022-12-11T21:31:22.173Z,56.03
2022-12-11T21:33:24.956Z,52.10
2022-12-11T21:35:27.663Z,55.93
2022-12-11T21:37:30.383Z,61.87
2022-12-11T21:39:38.941Z,64.43
2022-12-11T21:41:42.814Z,60.43
2022-12-11T21:46:13.075Z,57.17
2022-12-11T21:48:16.619Z,57.23
2022-12-11T21:50:19.771Z,52.50
2022-12-11T21:52:22.509Z,56.27
2022-12-11T21:54:25.386Z,54.93
2022-12-11T21:56:30.352Z,52.60
2022-12-11T21:58:33.107Z,48.83
2022-12-11T22:00:38.473Z,54.30
2022-12-11T22:02:41.507Z,48.67
2022-12-11T22:04:47.274Z,49.47
2022-12-11T22:06:50.030Z,59.93
2022-12-11T22:08:53.120Z,56.53
2022-12-11T22:10:56.586Z,61.90
2022-12-11T22:12:59.376Z,59.27
2022-12-11T22:15:02.111Z,58.27
2022-12-11T22:17:06.248Z,57.60
2022-12-11T22:19:09.419Z,54.87
2022-12-11T22:21:12.376Z,54.53
2022-12-11T22:23:15.163Z,55.80
2022-12-11T22:25:18.220Z,57.87
2022-12-11T22:27:23.822Z,63.37
2022-12-11T22:29:26.972Z,57.90
2022-12-11T22:31:29.946Z,57.33
2022-12-11T22:33:34.294Z,60.37
2022-12-11T22:35:37.271Z,59.10
2022-12-11T22:37:40.158Z,59.83
2022-12-11T22:39:42.839Z,62.13
2022-12-11T22:41:45.725Z,55.27
2022-12-11T22:43:48.729Z,49.83
2022-12-11T22:45:53.093Z,56.50
2022-12-11T22:47:55.837Z,60.27
2022-12-11T22:49:59.934Z,59.37
2022-12-11T22:52:02.854Z,55.50
2022-12-11T22:54:05.922Z,54.43
2022-12-11T22:56:10.231Z,49.53
2022-12-11T22:58:17.260Z,53.73
2022-12-11T23:00:23.286Z,50.13
2022-12-11T23:02:26.057Z,54.50
2022-12-11T23:04:28.986Z,51.27
2022-12-11T23:06:33.544Z,53.07
2022-12-11T23:08:36.951Z,57.87
2022-12-11T23:10:41.118Z,51.67
2022-12-11T23:12:43.835Z,48.63
2022-12-11T23:14:46.630Z,53.90
2022-12-11T23:16:49.526Z,57.50
2022-12-11T23:18:52.743Z,58.10
2022-12-11T23:20:55.521Z,55.20
2022-12-11T23:22:59.946Z,53.67
2022-12-11T23:25:02.720Z,52.00
2022-12-11T23:27:05.911Z,54.90
2022-12-11T23:29:09.221Z,53.07
2022-12-11T23:31:12.448Z,53.80
2022-12-11T23:33:15.210Z,52.50
2022-12-11T23:35:18.138Z,54.60
2022-12-11T23:37:21.178Z,59.93
2022-12-11T23:39:25.225Z,61.10
2022-12-11T23:41:28.340Z,56.67
2022-12-11T23:43:31.129Z,61.00
2022-12-11T23:45:34.043Z,50.00
2022-12-11T23:47:36.787Z,54.83
2022-12-11T23:49:39.569Z,55.17
2022-12-11T23:51:42.421Z,52.83
2022-12-11T23:53:45.880Z,52.23
2022-12-11T23:55:50.343Z,52.03
2022-12-11T23:57:53.179Z,56.43
2022-12-11T23:59:55.938Z,54.10
